createdAt,value
2023-05-20T00:00:24.549Z,23.79
2023-05-20T00:01:24.604Z,23.84
2023-05-20T00:02:24.693Z,23.89
2023-05-20T00:03:24.745Z,23.95
2023-05-20T00:04:24.553Z,23.99
2023-05-20T00:05:24.519Z,24.02
2023-05-20T00:06:24.564Z,24.07
2023-05-20T00:07:24.539Z,24.11
2023-05-20T00:08:24.524Z,24.16
2023-05-20T00:09:24.529Z,24.19
2023-05-20T00:10:24.533Z,24.23
2023-05-20T00:11:24.527Z,24.27
2023-05-20T00:12:24.508Z,24.30
2023-05-20T00:13:24.543Z,24.33
2023-05-20T00:14:24.509Z,24.35
2023-05-20T00:15:24.507Z,24.38
2023-05-20T00:16:24.526Z,24.40
2023-05-20T00:17:24.525Z,24.41
2023-05-20T00:18:24.547Z,24.44
2023-05-20T00:19:24.693Z,24.45
2023-05-20T00:20:24.589Z,24.48
2023-05-20T00:21:24.637Z,24.49
2023-05-20T00:22:24.664Z,24.50
2023-05-20T00:23:25.079Z,24.51
2023-05-20T00:24:25.082Z,24.53
2023-05-20T00:25:25.082Z,24.55
2023-05-20T00:26:25.082Z,24.55
2023-05-20T00:27:25.088Z,24.56
2023-05-20T00:28:25.085Z,24.56
2023-05-20T00:29:25.124Z,24.57
2023-05-20T00:30:25.079Z,24.58
2023-05-20T00:31:25.097Z,24.59
2023-05-20T00:32:25.202Z,24.59
2023-05-20T00:33:25.082Z,24.60
2023-05-20T00:34:25.096Z,24.60
2023-05-20T00:35:25.132Z,24.61
2023-05-20T00:36:25.144Z,24.60
2023-05-20T00:37:25.199Z,24.62
2023-05-20T00:38:25.209Z,24.62
2023-05-20T00:39:25.263Z,24.63
2023-05-20T00:40:25.292Z,24.63
2023-05-20T00:41:25.314Z,24.62
2023-05-20T00:42:25.394Z,24.63
2023-05-20T00:43:25.536Z,24.63
2023-05-20T00:44:25.385Z,24.64
2023-05-20T00:45:25.447Z,24.64
2023-05-20T00:46:25.545Z,24.63
2023-05-20T00:47:25.503Z,24.63
2023-05-20T00:48:25.522Z,24.64
2023-05-20T00:49:25.556Z,24.64
2023-05-20T00:50:25.584Z,24.64
2023-05-20T00:51:25.620Z,24.64
2023-05-20T00:52:25.668Z,24.64
2023-05-20T00:53:25.676Z,24.64
2023-05-20T00:54:26.143Z,24.64
2023-05-20T00:55:26.105Z,24.65
2023-05-20T00:56:26.117Z,24.65
2023-05-20T00:57:26.120Z,24.64
2023-05-20T00:58:26.104Z,24.64
2023-05-20T00:59:26.108Z,24.64
2023-05-20T01:00:26.144Z,24.64
2023-05-20T01:01:26.217Z,24.64
2023-05-20T01:02:26.219Z,24.64
2023-05-20T01:03:26.368Z,24.64
2023-05-20T01:04:26.117Z,24.64
2023-05-20T01:05:26.107Z,24.64
2023-05-20T01:06:26.112Z,24.64
2023-05-20T01:07:26.200Z,24.64
2023-05-20T01:08:26.185Z,24.65
2023-05-20T01:09:26.224Z,24.65
2023-05-20T01:10:26.267Z,24.64
2023-05-20T01:11:26.292Z,24.64
2023-05-20T01:12:26.374Z,24.64
2023-05-20T01:13:26.359Z,24.65
2023-05-20T01:14:26.394Z,24.64
2023-05-20T01:15:26.447Z,24.64
2023-05-20T01:16:26.515Z,24.64
2023-05-20T01:17:26.549Z,24.65
2023-05-20T01:18:26.551Z,24.64
2023-05-20T01:19:26.625Z,24.63
2023-05-20T01:20:26.604Z,24.64
2023-05-20T01:21:26.657Z,24.64
2023-05-20T01:22:26.670Z,24.63
2023-05-20T01:23:26.723Z,24.64
2023-05-20T01:24:26.718Z,24.64
2023-05-20T01:25:26.790Z,24.63
2023-05-20T01:26:26.802Z,24.64
2023-05-20T01:27:26.848Z,24.64
2023-05-20T01:28:26.874Z,24.63
2023-05-20T01:29:26.901Z,24.63
2023-05-20T01:30:26.935Z,24.63
2023-05-20T01:31:27.009Z,24.63
2023-05-20T01:32:27.022Z,24.63
2023-05-20T01:33:27.109Z,24.63
2023-05-20T01:34:27.087Z,24.62
2023-05-20T01:35:27.115Z,24.62
2023-05-20T01:36:27.171Z,24.63
2023-05-20T01:37:27.187Z,24.62
2023-05-20T01:38:27.227Z,24.63
2023-05-20T01:39:27.255Z,24.62
2023-05-20T01:40:27.291Z,24.63
2023-05-20T01:41:27.343Z,24.62
2023-05-20T01:42:27.370Z,24.62
2023-05-20T01:43:27.410Z,24.63
2023-05-20T01:44:27.445Z,24.64
2023-05-20T01:45:27.464Z,24.64
2023-05-20T01:46:27.614Z,24.65
2023-05-20T01:47:27.562Z,24.66
2023-05-20T01:48:27.582Z,24.66
2023-05-20T01:49:27.626Z,24.67
2023-05-20T01:50:27.645Z,24.68
2023-05-20T01:51:27.675Z,24.69
2023-05-20T01:52:27.705Z,24.69
2023-05-20T01:53:27.737Z,24.69
2023-05-20T01:54:27.769Z,24.69
2023-05-20T01:55:27.808Z,24.69
2023-05-20T01:56:27.850Z,24.71
2023-05-20T01:57:27.898Z,24.70
2023-05-20T01:58:27.903Z,24.71
2023-05-20T01:59:27.937Z,24.72
2023-05-20T02:00:27.962Z,24.72
2023-05-20T02:01:28.161Z,24.73
2023-05-20T02:02:28.191Z,24.73
2023-05-20T02:03:28.092Z,24.73
2023-05-20T02:04:28.080Z,24.74
2023-05-20T02:05:28.148Z,24.74
2023-05-20T02:06:28.136Z,24.75
2023-05-20T02:07:28.157Z,24.76
2023-05-20T02:08:28.181Z,24.76
2023-05-20T02:09:28.201Z,24.76
2023-05-20T02:10:28.219Z,24.76
2023-05-20T02:11:29.092Z,24.76
2023-05-20T02:12:28.277Z,24.77
2023-05-20T02:13:28.309Z,24.76
2023-05-20T02:14:28.320Z,24.77
2023-05-20T02:15:28.340Z,24.77
2023-05-20T02:16:28.412Z,24.78
2023-05-20T02:17:28.472Z,24.78
2023-05-20T02:18:28.419Z,24.78
2023-05-20T02:19:28.505Z,24.78
2023-05-20T02:20:28.465Z,24.78
2023-05-20T02:21:28.525Z,24.78
2023-05-20T02:22:28.522Z,24.78
2023-05-20T02:23:28.543Z,24.79
2023-05-20T02:24:28.552Z,24.79
2023-05-20T02:25:28.575Z,24.80
2023-05-20T02:26:28.594Z,24.79
2023-05-20T02:27:28.619Z,24.80
2023-05-20T02:28:28.625Z,24.81
2023-05-20T02:29:28.651Z,24.81
2023-05-20T02:30:28.687Z,24.82
2023-05-20T02:31:28.696Z,24.82
2023-05-20T02:32:28.713Z,24.81
2023-05-20T02:33:28.756Z,24.81
2023-05-20T02:34:28.812Z,24.82
2023-05-20T02:35:28.781Z,24.83
2023-05-20T02:36:28.818Z,24.82
2023-05-20T02:37:28.836Z,24.83
2023-05-20T02:38:28.840Z,24.84
2023-05-20T02:39:28.905Z,24.84
2023-05-20T02:40:28.906Z,24.84
2023-05-20T02:41:28.910Z,24.84
2023-05-20T02:42:28.928Z,24.84
2023-05-20T02:43:29.005Z,24.84
2023-05-20T02:44:28.962Z,24.85
2023-05-20T02:45:28.994Z,24.84
2023-05-20T02:46:29.200Z,24.85
2023-05-20T02:47:29.063Z,24.84
2023-05-20T02:48:29.066Z,24.85
2023-05-20T02:49:29.077Z,24.85
2023-05-20T02:50:29.096Z,24.85
2023-05-20T02:51:29.112Z,24.85
2023-05-20T02:52:29.129Z,24.85
2023-05-20T02:53:29.175Z,24.84
2023-05-20T02:54:29.179Z,24.85
2023-05-20T02:55:29.184Z,24.85
2023-05-20T02:56:29.216Z,24.84
2023-05-20T02:57:29.225Z,24.85
2023-05-20T02:58:29.255Z,24.86
2023-05-20T02:59:29.273Z,24.86
2023-05-20T03:00:29.278Z,24.86
2023-05-20T03:01:29.359Z,24.87
2023-05-20T03:02:29.323Z,24.86
2023-05-20T03:03:29.356Z,24.86
2023-05-20T03:04:29.409Z,24.86
2023-05-20T03:05:29.368Z,24.86
2023-05-20T03:06:29.388Z,24.86
2023-05-20T03:07:29.404Z,24.86
2023-05-20T03:08:29.431Z,24.87
2023-05-20T03:09:29.481Z,24.85
2023-05-20T03:10:29.467Z,24.85
2023-05-20T03:11:29.492Z,24.85
2023-05-20T03:12:29.511Z,24.85
2023-05-20T03:13:29.575Z,24.85
2023-05-20T03:14:29.572Z,24.85
2023-05-20T03:15:29.580Z,24.85
2023-05-20T03:16:29.673Z,24.86
2023-05-20T03:17:29.682Z,24.85
2023-05-20T03:18:29.643Z,24.86
2023-05-20T03:19:29.680Z,24.86
2023-05-20T03:20:29.675Z,24.86
2023-05-20T03:21:29.706Z,24.86
2023-05-20T03:22:29.713Z,24.88
2023-05-20T03:23:29.719Z,24.88
2023-05-20T03:24:29.768Z,24.87
2023-05-20T03:25:29.784Z,24.87
2023-05-20T03:26:29.772Z,24.87
2023-05-20T03:27:29.798Z,24.87
2023-05-20T03:28:29.819Z,24.87
2023-05-20T03:29:29.833Z,24.87
2023-05-20T03:30:29.866Z,24.88
2023-05-20T03:31:29.932Z,24.87
2023-05-20T03:32:29.969Z,24.86
2023-05-20T03:33:29.907Z,24.87
2023-05-20T03:34:29.926Z,24.87
2023-05-20T03:35:29.937Z,24.87
2023-05-20T03:36:29.953Z,24.86
2023-05-20T03:37:29.975Z,24.87
2023-05-20T03:38:29.993Z,24.86
2023-05-20T03:39:30.012Z,24.86
2023-05-20T03:40:30.034Z,24.86
2023-05-20T03:41:30.065Z,24.86
2023-05-20T03:42:30.050Z,24.86
2023-05-20T03:43:30.070Z,24.86
2023-05-20T03:44:30.093Z,24.86
2023-05-20T03:45:30.120Z,24.87
2023-05-20T03:46:30.185Z,24.87
2023-05-20T03:47:30.202Z,24.87
2023-05-20T03:48:30.169Z,24.87
2023-05-20T03:49:30.174Z,24.88
2023-05-20T03:50:30.203Z,24.88
2023-05-20T03:51:30.206Z,24.89
2023-05-20T03:52:30.224Z,24.89
2023-05-20T03:53:30.248Z,24.88
2023-05-20T03:54:30.246Z,24.89
2023-05-20T03:55:30.262Z,24.89
2023-05-20T03:56:30.268Z,24.89
2023-05-20T03:57:30.312Z,24.89
2023-05-20T03:58:30.314Z,24.90
2023-05-20T03:59:30.321Z,24.91
2023-05-20T04:00:30.360Z,24.90
2023-05-20T04:01:30.344Z,24.90
2023-05-20T04:02:30.475Z,24.90
2023-05-20T04:03:30.487Z,24.89
2023-05-20T04:04:30.387Z,24.89
2023-05-20T04:05:30.402Z,24.89
2023-05-20T04:06:30.420Z,24.89
2023-05-20T04:07:30.422Z,24.89
2023-05-20T04:08:30.444Z,24.89
2023-05-20T04:09:30.538Z,24.89
2023-05-20T04:10:30.476Z,24.89
2023-05-20T04:11:30.496Z,24.89
2023-05-20T04:12:30.591Z,24.90
2023-05-20T04:13:30.543Z,24.90
2023-05-20T04:14:31.490Z,24.91
2023-05-20T04:15:30.509Z,24.90
2023-05-20T04:16:30.523Z,24.91
2023-05-20T04:17:30.536Z,24.91
2023-05-20T04:18:30.476Z,24.92
2023-05-20T04:19:30.498Z,24.91
2023-05-20T04:20:30.456Z,24.91
2023-05-20T04:21:30.445Z,24.91
2023-05-20T04:22:30.429Z,24.91
2023-05-20T04:23:30.425Z,24.91
2023-05-20T04:24:30.406Z,24.91
2023-05-20T04:25:30.414Z,24.93
2023-05-20T04:26:30.389Z,24.94
2023-05-20T04:27:30.380Z,24.94
2023-05-20T04:28:30.357Z,24.94
2023-05-20T04:29:30.371Z,24.94
2023-05-20T04:30:30.334Z,24.93
2023-05-20T04:31:30.373Z,24.94
2023-05-20T04:32:30.372Z,24.94
2023-05-20T04:33:30.303Z,24.94
2023-05-20T04:34:30.277Z,24.95
2023-05-20T04:35:30.320Z,24.95
2023-05-20T04:36:30.249Z,24.97
2023-05-20T04:37:30.254Z,24.96
2023-05-20T04:38:30.411Z,24.96
2023-05-20T04:39:30.211Z,24.97
2023-05-20T04:40:30.204Z,24.98
2023-05-20T04:41:30.199Z,24.97
2023-05-20T04:42:30.179Z,24.97
2023-05-20T04:43:30.331Z,24.98
2023-05-20T04:44:30.130Z,24.98
2023-05-20T04:45:30.293Z,24.98
2023-05-20T04:46:30.214Z,24.98
2023-05-20T04:47:30.105Z,24.98
2023-05-20T04:48:30.079Z,24.98
2023-05-20T04:49:30.073Z,24.99
2023-05-20T04:50:30.071Z,25.00
2023-05-20T04:51:30.030Z,24.99
2023-05-20T04:52:30.009Z,24.99
2023-05-20T04:53:29.991Z,24.99
2023-05-20T04:54:29.998Z,24.99
2023-05-20T04:55:29.987Z,24.98
2023-05-20T04:56:29.962Z,25.00
2023-05-20T04:57:29.938Z,25.00
2023-05-20T04:58:29.922Z,25.00
2023-05-20T04:59:29.912Z,25.00
2023-05-20T05:00:29.893Z,24.99
2023-05-20T05:01:29.916Z,25.01
2023-05-20T05:02:29.898Z,25.01
2023-05-20T05:03:29.848Z,25.01
2023-05-20T05:04:29.889Z,25.01
2023-05-20T05:05:29.821Z,25.01
2023-05-20T05:06:29.805Z,25.01
2023-05-20T05:07:29.784Z,25.00
2023-05-20T05:08:29.784Z,25.01
2023-05-20T05:09:29.752Z,25.01
2023-05-20T05:10:29.726Z,25.02
2023-05-20T05:11:29.725Z,25.02
2023-05-20T05:12:29.691Z,25.02
2023-05-20T05:13:29.678Z,25.01
2023-05-20T05:14:29.681Z,25.01
2023-05-20T05:15:29.659Z,25.02
2023-05-20T05:16:29.701Z,25.01
2023-05-20T05:17:29.702Z,25.01
2023-05-20T05:18:29.674Z,25.01
2023-05-20T05:19:29.725Z,25.01
2023-05-20T05:20:29.680Z,25.02
2023-05-20T05:21:29.685Z,25.01
2023-05-20T05:22:29.702Z,25.02
2023-05-20T05:23:29.705Z,25.02
2023-05-20T05:24:29.714Z,25.03
2023-05-20T05:25:29.724Z,25.03
2023-05-20T05:26:29.739Z,25.02
2023-05-20T05:27:29.742Z,25.04
2023-05-20T05:28:29.751Z,25.04
2023-05-20T05:29:29.763Z,25.04
2023-05-20T05:30:29.820Z,25.04
2023-05-20T05:31:29.767Z,25.04
2023-05-20T05:32:29.829Z,25.05
2023-05-20T05:33:29.840Z,25.05
2023-05-20T05:34:29.823Z,25.07
2023-05-20T05:35:29.789Z,25.07
2023-05-20T05:36:29.792Z,25.07
2023-05-20T05:37:29.789Z,25.07
2023-05-20T05:38:29.800Z,25.08
2023-05-20T05:39:29.802Z,25.09
2023-05-20T05:40:29.807Z,25.09
2023-05-20T05:41:29.809Z,25.09
2023-05-20T05:42:29.814Z,25.08
2023-05-20T05:43:29.822Z,25.08
2023-05-20T05:44:29.828Z,25.09
2023-05-20T05:45:29.829Z,25.10
2023-05-20T05:46:29.883Z,25.10
2023-05-20T05:47:29.872Z,25.11
2023-05-20T05:48:29.840Z,25.12
2023-05-20T05:49:30.692Z,25.11
2023-05-20T05:50:29.844Z,25.12
2023-05-20T05:51:29.830Z,25.12
2023-05-20T05:52:29.850Z,25.12
2023-05-20T05:53:29.841Z,25.13
2023-05-20T05:54:29.851Z,25.12
2023-05-20T05:55:29.849Z,25.13
2023-05-20T05:56:29.838Z,25.13
2023-05-20T05:57:29.848Z,25.13
2023-05-20T05:58:29.867Z,25.12
2023-05-20T05:59:30.657Z,25.13
2023-05-20T06:00:29.906Z,25.13
2023-05-20T06:01:29.883Z,25.14
2023-05-20T06:02:30.006Z,25.15
2023-05-20T06:03:30.026Z,25.15
2023-05-20T06:04:29.935Z,25.15
2023-05-20T06:05:30.099Z,25.15
2023-05-20T06:06:29.912Z,25.15
2023-05-20T06:07:29.921Z,25.16
2023-05-20T06:08:29.927Z,25.16
2023-05-20T06:09:29.934Z,25.17
2023-05-20T06:10:29.928Z,25.16
2023-05-20T06:11:29.962Z,25.15
2023-05-20T06:12:29.929Z,25.17
2023-05-20T06:13:29.929Z,25.16
2023-05-20T06:14:29.951Z,25.16
2023-05-20T06:15:29.979Z,25.17
2023-05-20T06:16:30.013Z,25.17
2023-05-20T06:17:29.946Z,25.17
2023-05-20T06:18:29.927Z,25.17
2023-05-20T06:19:30.004Z,25.17
2023-05-20T06:20:29.929Z,25.17
2023-05-20T06:21:30.005Z,25.17
2023-05-20T06:22:29.940Z,25.17
2023-05-20T06:23:29.915Z,25.17
2023-05-20T06:24:29.924Z,25.17
2023-05-20T06:25:29.922Z,25.16
2023-05-20T06:26:29.923Z,25.16
2023-05-20T06:27:29.925Z,25.16
2023-05-20T06:28:29.935Z,25.15
2023-05-20T06:29:29.901Z,25.15
2023-05-20T06:30:29.893Z,25.14
2023-05-20T06:31:30.006Z,25.14
2023-05-20T06:32:29.967Z,25.14
2023-05-20T06:33:29.904Z,25.14
2023-05-20T06:34:29.898Z,25.14
2023-05-20T06:35:29.901Z,25.14
2023-05-20T06:36:31.265Z,25.15
2023-05-20T06:37:29.918Z,25.15
2023-05-20T06:38:29.872Z,25.15
2023-05-20T06:39:29.860Z,25.15
2023-05-20T06:40:29.839Z,25.15
2023-05-20T06:41:29.827Z,25.15
2023-05-20T06:42:29.817Z,25.15
2023-05-20T06:43:29.800Z,25.14
2023-05-20T06:44:29.804Z,25.15
2023-05-20T06:45:29.777Z,25.14
2023-05-20T06:46:29.829Z,25.15
2023-05-20T06:47:29.766Z,25.15
2023-05-20T06:48:29.741Z,25.14
2023-05-20T06:49:29.720Z,25.14
2023-05-20T06:50:29.712Z,25.13
2023-05-20T06:51:29.697Z,25.13
2023-05-20T06:52:29.680Z,25.14
2023-05-20T06:53:29.699Z,25.13
2023-05-20T06:54:29.650Z,25.13
2023-05-20T06:55:29.656Z,25.14
2023-05-20T06:56:29.616Z,25.15
2023-05-20T06:57:29.620Z,25.15
2023-05-20T06:58:29.631Z,25.16
2023-05-20T06:59:29.581Z,25.17
2023-05-20T07:00:29.558Z,25.17
2023-05-20T07:01:29.581Z,25.18
2023-05-20T07:02:29.545Z,25.18
2023-05-20T07:03:29.556Z,25.18
2023-05-20T07:04:29.519Z,25.18
2023-05-20T07:05:29.498Z,25.18
2023-05-20T07:06:29.457Z,25.18
2023-05-20T07:07:29.451Z,25.18
2023-05-20T07:08:29.425Z,25.19
2023-05-20T07:09:29.438Z,25.18
2023-05-20T07:10:29.389Z,25.19
2023-05-20T07:11:29.402Z,25.19
2023-05-20T07:12:29.356Z,25.20
2023-05-20T07:13:29.334Z,25.20
2023-05-20T07:14:29.315Z,25.20
2023-05-20T07:15:29.304Z,25.20
2023-05-20T07:16:29.342Z,25.21
2023-05-20T07:17:29.294Z,25.21
2023-05-20T07:18:29.249Z,25.21
2023-05-20T07:19:29.315Z,25.21
2023-05-20T07:20:29.215Z,25.21
2023-05-20T07:21:29.197Z,25.20
2023-05-20T07:22:29.175Z,25.20
2023-05-20T07:23:29.149Z,25.21
2023-05-20T07:24:29.135Z,25.22
2023-05-20T07:25:29.160Z,25.22
2023-05-20T07:26:29.092Z,25.23
2023-05-20T07:27:29.062Z,25.24
2023-05-20T07:28:29.073Z,25.25
2023-05-20T07:29:29.027Z,25.24
2023-05-20T07:30:29.010Z,25.25
2023-05-20T07:31:29.017Z,25.25
2023-05-20T07:32:29.019Z,25.25
2023-05-20T07:33:28.953Z,25.25
2023-05-20T07:34:28.933Z,25.24
2023-05-20T07:35:28.918Z,25.24
2023-05-20T07:36:28.899Z,25.25
2023-05-20T07:37:28.876Z,25.25
2023-05-20T07:38:28.869Z,25.24
2023-05-20T07:39:28.837Z,25.24
2023-05-20T07:40:28.815Z,25.25
2023-05-20T07:41:28.818Z,25.25
2023-05-20T07:42:28.781Z,25.24
2023-05-20T07:43:28.761Z,25.24
2023-05-20T07:44:28.741Z,25.23
2023-05-20T07:45:28.720Z,25.24
2023-05-20T07:46:28.734Z,25.23
2023-05-20T07:47:28.720Z,25.23
2023-05-20T07:48:28.676Z,25.23
2023-05-20T07:49:28.643Z,25.24
2023-05-20T07:50:28.627Z,25.24
2023-05-20T07:51:28.608Z,25.23
2023-05-20T07:52:28.599Z,25.22
2023-05-20T07:53:28.575Z,25.22
2023-05-20T07:54:28.548Z,25.22
2023-05-20T07:55:29.216Z,25.21
2023-05-20T07:56:28.506Z,25.22
2023-05-20T07:57:28.519Z,25.24
2023-05-20T07:58:28.465Z,25.24
2023-05-20T07:59:28.441Z,25.25
2023-05-20T08:00:28.408Z,25.25
2023-05-20T08:01:28.398Z,25.24
2023-05-20T08:02:28.507Z,25.24
2023-05-20T08:03:28.483Z,25.25
2023-05-20T08:04:28.406Z,25.25
2023-05-20T08:05:28.358Z,25.26
2023-05-20T08:06:29.899Z,25.26
2023-05-20T08:07:28.314Z,25.27
2023-05-20T08:08:28.285Z,25.28
2023-05-20T08:09:28.272Z,25.29
2023-05-20T08:10:28.238Z,25.31
2023-05-20T08:11:28.219Z,25.30
2023-05-20T08:12:28.190Z,25.31
2023-05-20T08:13:28.218Z,25.30
2023-05-20T08:14:28.147Z,25.29
2023-05-20T08:15:28.122Z,25.29
2023-05-20T08:16:28.108Z,25.29
2023-05-20T08:17:28.100Z,25.29
2023-05-20T08:18:28.064Z,25.29
2023-05-20T08:19:28.119Z,25.28
2023-05-20T08:20:28.025Z,25.28
2023-05-20T08:21:28.008Z,25.29
2023-05-20T08:22:27.984Z,25.29
2023-05-20T08:23:27.974Z,25.30
2023-05-20T08:24:27.958Z,25.32
2023-05-20T08:25:27.977Z,25.32
2023-05-20T08:26:27.914Z,25.33
2023-05-20T08:27:27.901Z,25.33
2023-05-20T08:28:27.895Z,25.33
2023-05-20T08:29:27.879Z,25.33
2023-05-20T08:30:27.826Z,25.33
2023-05-20T08:31:27.875Z,25.34
2023-05-20T08:32:27.817Z,25.33
2023-05-20T08:33:27.773Z,25.32
2023-05-20T08:34:27.779Z,25.32
2023-05-20T08:35:27.743Z,25.32
2023-05-20T08:36:27.734Z,25.33
2023-05-20T08:37:28.217Z,25.33
2023-05-20T08:38:27.686Z,25.33
2023-05-20T08:39:27.654Z,25.33
2023-05-20T08:40:27.632Z,25.34
2023-05-20T08:41:27.620Z,25.35
2023-05-20T08:42:27.597Z,25.36
2023-05-20T08:43:27.571Z,25.37
2023-05-20T08:44:27.560Z,25.37
2023-05-20T08:45:27.571Z,25.38
2023-05-20T08:46:27.577Z,25.37
2023-05-20T08:47:27.564Z,25.37
2023-05-20T08:48:27.474Z,25.36
2023-05-20T08:49:27.480Z,25.37
2023-05-20T08:50:27.448Z,25.38
2023-05-20T08:51:27.422Z,25.38
2023-05-20T08:52:27.406Z,25.39
2023-05-20T08:53:27.371Z,25.39
2023-05-20T08:54:27.348Z,25.40
2023-05-20T08:55:27.326Z,25.41
2023-05-20T08:56:30.032Z,25.40
2023-05-20T08:57:27.272Z,25.41
2023-05-20T08:58:27.248Z,25.41
2023-05-20T08:59:27.220Z,25.42
2023-05-20T09:00:27.274Z,25.42
2023-05-20T09:01:27.236Z,25.43
2023-05-20T09:02:27.183Z,25.44
2023-05-20T09:03:27.167Z,25.44
2023-05-20T09:04:27.113Z,25.45
2023-05-20T09:05:27.097Z,25.45
2023-05-20T09:06:27.070Z,25.45
2023-05-20T09:07:27.052Z,25.45
2023-05-20T09:08:27.016Z,25.45
2023-05-20T09:09:26.996Z,25.45
2023-05-20T09:10:26.993Z,25.46
2023-05-20T09:11:26.986Z,25.46
2023-05-20T09:12:26.939Z,25.46
2023-05-20T09:13:29.733Z,25.46
2023-05-20T09:14:26.895Z,25.46
2023-05-20T09:15:26.865Z,25.46
2023-05-20T09:16:26.902Z,25.46
2023-05-20T09:17:26.933Z,25.46
2023-05-20T09:18:26.805Z,25.47
2023-05-20T09:19:26.854Z,25.46
2023-05-20T09:20:26.744Z,25.46
2023-05-20T09:21:26.732Z,25.45
2023-05-20T09:22:26.698Z,25.44
2023-05-20T09:23:26.684Z,25.44
2023-05-20T09:24:26.956Z,25.44
2023-05-20T09:25:26.639Z,25.43
2023-05-20T09:26:26.618Z,25.43
2023-05-20T09:27:26.591Z,25.43
2023-05-20T09:28:26.573Z,25.43
2023-05-20T09:29:26.559Z,25.43
2023-05-20T09:30:26.565Z,25.43
2023-05-20T09:31:26.617Z,25.44
2023-05-20T09:32:26.687Z,25.44
2023-05-20T09:33:26.611Z,25.46
2023-05-20T09:34:26.576Z,25.45
2023-05-20T09:35:26.568Z,25.46
2023-05-20T09:36:26.569Z,25.46
2023-05-20T09:37:26.558Z,25.46
2023-05-20T09:38:26.574Z,25.47
2023-05-20T09:39:26.560Z,25.46
2023-05-20T09:40:26.560Z,25.46
2023-05-20T09:41:26.569Z,25.47
2023-05-20T09:42:26.602Z,25.45
2023-05-20T09:43:26.564Z,25.45
2023-05-20T09:44:26.557Z,25.45
2023-05-20T09:45:26.564Z,25.45
2023-05-20T09:46:26.589Z,25.44
2023-05-20T09:47:26.150Z,25.45
2023-05-20T09:48:26.180Z,25.44
2023-05-20T09:49:26.125Z,25.44
2023-05-20T09:50:26.100Z,25.45
2023-05-20T09:51:26.058Z,25.45
2023-05-20T09:52:26.041Z,25.45
2023-05-20T09:53:26.010Z,25.45
2023-05-20T09:54:25.997Z,25.46
2023-05-20T09:55:25.985Z,25.46
2023-05-20T09:56:25.968Z,25.47
2023-05-20T09:57:25.951Z,25.47
2023-05-20T09:58:25.920Z,25.46
2023-05-20T09:59:25.912Z,25.47
2023-05-20T10:00:25.892Z,25.47
2023-05-20T10:01:25.906Z,25.47
2023-05-20T10:02:25.923Z,25.46
2023-05-20T10:03:25.940Z,25.45
2023-05-20T10:04:25.817Z,25.45
2023-05-20T10:05:25.831Z,25.45
2023-05-20T10:06:25.788Z,25.44
2023-05-20T10:07:40.692Z,25.45
2023-05-20T10:08:25.765Z,25.45
2023-05-20T10:09:25.721Z,25.46
2023-05-20T10:10:25.706Z,25.46
2023-05-20T10:11:25.678Z,25.47
2023-05-20T10:12:25.681Z,25.47
2023-05-20T10:13:25.663Z,25.47
2023-05-20T10:14:25.630Z,25.46
2023-05-20T10:15:25.631Z,25.46
2023-05-20T10:16:25.809Z,25.47
2023-05-20T10:17:25.682Z,25.47
2023-05-20T10:18:25.643Z,25.48
2023-05-20T10:19:25.807Z,25.49
2023-05-20T10:20:25.629Z,25.49
2023-05-20T10:21:25.658Z,25.50
2023-05-20T10:22:25.628Z,25.51
2023-05-20T10:23:25.631Z,25.50
2023-05-20T10:24:25.632Z,25.50
2023-05-20T10:25:25.626Z,25.50
2023-05-20T10:26:25.633Z,25.50
2023-05-20T10:27:25.634Z,25.51
2023-05-20T10:28:25.637Z,25.51
2023-05-20T10:29:25.638Z,25.50
2023-05-20T10:30:25.635Z,25.51
2023-05-20T10:31:25.639Z,25.51
2023-05-20T10:32:25.663Z,25.51
2023-05-20T10:33:25.651Z,25.51
2023-05-20T10:34:25.218Z,25.53
2023-05-20T10:35:25.179Z,25.53
2023-05-20T10:36:25.161Z,25.55
2023-05-20T10:37:25.162Z,25.56
2023-05-20T10:38:25.098Z,25.57
2023-05-20T10:39:25.081Z,25.57
2023-05-20T10:40:25.052Z,25.57
2023-05-20T10:41:25.082Z,25.58
2023-05-20T10:42:25.000Z,25.58
2023-05-20T10:43:24.969Z,25.58
2023-05-20T10:44:24.948Z,25.58
2023-05-20T10:45:24.945Z,25.58
2023-05-20T10:46:32.982Z,25.58
2023-05-20T10:47:26.299Z,25.57
2023-05-20T10:48:24.997Z,25.57
2023-05-20T10:49:27.419Z,25.56
2023-05-20T10:50:24.808Z,25.56
2023-05-20T10:51:25.771Z,25.56
2023-05-20T10:52:24.749Z,25.56
2023-05-20T10:53:32.846Z,25.56
2023-05-20T10:54:24.722Z,25.56
2023-05-20T10:55:24.688Z,25.55
2023-05-20T10:56:24.663Z,25.55
2023-05-20T10:57:24.650Z,25.55
2023-05-20T10:58:24.641Z,25.55
2023-05-20T10:59:24.631Z,25.55
2023-05-20T11:00:24.596Z,25.55
2023-05-20T11:01:25.684Z,25.55
2023-05-20T11:02:24.560Z,25.55
2023-05-20T11:03:24.639Z,25.56
2023-05-20T11:04:24.521Z,25.57
2023-05-20T11:05:24.505Z,25.59
2023-05-20T11:06:24.477Z,25.58
2023-05-20T11:07:24.467Z,25.59
2023-05-20T11:08:28.388Z,25.59
2023-05-20T11:09:24.465Z,25.58
2023-05-20T11:10:24.482Z,25.59
2023-05-20T11:11:24.386Z,25.60
2023-05-20T11:12:24.360Z,25.60
2023-05-20T11:13:24.368Z,25.61
2023-05-20T11:14:24.341Z,25.61
2023-05-20T11:15:24.302Z,25.61
2023-05-20T11:16:24.327Z,25.60
2023-05-20T11:17:24.242Z,25.61
2023-05-20T11:18:24.223Z,25.62
2023-05-20T11:19:24.246Z,25.61
2023-05-20T11:20:24.187Z,25.61
2023-05-20T11:21:24.162Z,25.62
2023-05-20T11:22:24.142Z,25.61
2023-05-20T11:23:24.110Z,25.61
2023-05-20T11:24:24.073Z,25.62
2023-05-20T11:25:24.088Z,25.63
2023-05-20T11:26:24.031Z,25.64
2023-05-20T11:27:24.004Z,25.63
2023-05-20T11:28:23.983Z,25.64
2023-05-20T11:29:23.962Z,25.64
2023-05-20T11:30:23.939Z,25.64
2023-05-20T11:31:23.931Z,25.63
2023-05-20T11:32:23.929Z,25.63
2023-05-20T11:33:23.873Z,25.62
2023-05-20T11:34:26.352Z,25.62
2023-05-20T11:35:23.861Z,25.62
2023-05-20T11:36:27.945Z,25.62
2023-05-20T11:37:23.883Z,25.63
2023-05-20T11:38:23.917Z,25.63
2023-05-20T11:39:23.950Z,25.63
2023-05-20T11:40:23.980Z,25.64
2023-05-20T11:41:24.051Z,25.64
2023-05-20T11:42:24.051Z,25.64
2023-05-20T11:43:24.113Z,25.64
2023-05-20T11:44:24.124Z,25.63
2023-05-20T11:45:24.141Z,25.63
2023-05-20T11:46:24.218Z,25.63
2023-05-20T11:47:24.199Z,25.64
2023-05-20T11:48:24.253Z,25.64
2023-05-20T11:49:24.276Z,25.64
2023-05-20T11:50:24.318Z,25.64
2023-05-20T11:51:24.345Z,25.64
2023-05-20T11:52:24.371Z,25.64
2023-05-20T11:53:24.411Z,25.64
2023-05-20T11:54:24.455Z,25.66
2023-05-20T11:55:24.482Z,25.65
2023-05-20T11:56:24.524Z,25.66
2023-05-20T11:57:24.576Z,25.66
2023-05-20T11:58:24.581Z,25.67
2023-05-20T11:59:24.622Z,25.67
2023-05-20T12:00:24.998Z,25.66
2023-05-20T12:01:24.848Z,25.66
2023-05-20T12:02:24.817Z,25.67
2023-05-20T12:03:24.931Z,25.67
2023-05-20T12:04:24.917Z,25.66
2023-05-20T12:05:24.844Z,25.66
2023-05-20T12:06:24.870Z,25.66
2023-05-20T12:07:24.946Z,25.67
2023-05-20T12:08:24.939Z,25.67
2023-05-20T12:09:24.991Z,25.66
2023-05-20T12:10:25.016Z,25.67
2023-05-20T12:11:25.086Z,25.67
2023-05-20T12:12:25.129Z,25.67
2023-05-20T12:13:25.142Z,25.69
2023-05-20T12:14:25.157Z,25.68
2023-05-20T12:15:25.193Z,25.69
2023-05-20T12:16:25.676Z,25.69
2023-05-20T12:17:25.720Z,25.69
2023-05-20T12:18:25.688Z,25.68
2023-05-20T12:19:25.716Z,25.69
2023-05-20T12:20:25.639Z,25.69
2023-05-20T12:21:25.644Z,25.68
2023-05-20T12:22:25.686Z,25.67
2023-05-20T12:23:25.674Z,25.67
2023-05-20T12:24:25.637Z,25.68
2023-05-20T12:25:25.635Z,25.68
2023-05-20T12:26:25.653Z,25.68
2023-05-20T12:27:25.655Z,25.68
2023-05-20T12:28:25.730Z,25.68
2023-05-20T12:29:25.754Z,25.68
2023-05-20T12:30:25.768Z,25.68
2023-05-20T12:31:25.878Z,25.68
2023-05-20T12:32:25.857Z,25.69
2023-05-20T12:33:25.862Z,25.69
2023-05-20T12:34:25.901Z,25.69
2023-05-20T12:35:25.958Z,25.70
2023-05-20T12:36:25.975Z,25.72
2023-05-20T12:37:26.007Z,25.72
2023-05-20T12:38:26.044Z,25.73
2023-05-20T12:39:26.074Z,25.74
2023-05-20T12:40:26.113Z,25.73
2023-05-20T12:41:26.169Z,25.74
2023-05-20T12:42:26.568Z,25.73
2023-05-20T12:43:26.577Z,25.73
2023-05-20T12:44:26.574Z,25.74
2023-05-20T12:45:26.592Z,25.72
2023-05-20T12:46:26.571Z,25.72
2023-05-20T12:47:26.631Z,25.72
2023-05-20T12:48:26.576Z,25.72
2023-05-20T12:49:26.578Z,25.71
2023-05-20T12:50:26.567Z,25.72
2023-05-20T12:51:26.584Z,25.73
2023-05-20T12:52:26.582Z,25.73